Time;durP1;ratioP1;P1;durP2;ratioP2;P2;SDS_P1;SDS_P2;PMS_P1;PMS_P2;Temp;Humidity;BMP_temperature;BMP_pressure;BME280_temperature;BME280_humidity;BME280_pressure;Samples;Min_cycle;Max_cycle;Signal;HPM_P1;HPM_P2
2022/04/23 00:02:05;;;;;;;0.80;0.80;;;12.20;99.90;12.00;100199.00;;;;5054163;28;20197;-70
2022/04/23 00:04:31;;;;;;;4.67;4.17;;;12.30;99.90;11.80;100205.00;;;;5056036;28;20533;-70
2022/04/23 00:07:00;;;;;;;0.40;0.40;;;12.20;99.90;12.30;100195.00;;;;5054848;28;20204;-70
2022/04/23 00:09:27;;;;;;;0.30;0.30;;;12.30;99.90;12.10;100187.00;;;;5055291;28;20183;-68
2022/04/23 00:11:56;;;;;;;1.90;1.80;;;12.30;99.90;11.90;100191.00;;;;5053790;28;20213;-67
2022/04/23 00:14:22;;;;;;;2.90;2.70;;;12.20;99.90;12.30;100189.00;;;;5054216;28;20536;-69
2022/04/23 00:16:50;;;;;;;4.43;3.10;;;12.20;99.90;12.00;100196.00;;;;5054598;28;20705;-68
2022/04/23 00:19:20;;;;;;;1.67;1.57;;;12.30;99.90;11.90;100179.00;;;;5037405;28;20174;-68
2022/04/23 00:21:49;;;;;;;4.43;3.37;;;12.30;99.90;11.60;100176.00;;;;5053689;28;20181;-68
2022/04/23 00:24:15;;;;;;;5.03;4.20;;;12.10;99.90;11.60;100190.00;;;;5054910;28;20201;-68
2022/04/23 00:26:41;;;;;;;2.57;1.90;;;12.00;99.90;11.80;100187.00;;;;5053751;28;20644;-68
2022/04/23 00:29:17;;;;;;;1.03;0.93;;;12.10;99.90;12.10;100193.00;;;;5053665;28;20178;-68
2022/04/23 00:31:51;;;;;;;2.30;1.17;;;12.10;99.90;11.90;100177.00;;;;5053123;28;20275;-68
2022/04/23 00:34:19;;;;;;;1.90;1.87;;;12.10;99.90;11.50;100174.00;;;;5054465;28;20171;-68
2022/04/23 00:36:45;;;;;;;5.27;3.07;;;12.00;99.90;12.00;100178.00;;;;5036867;28;20239;-68
2022/04/23 00:39:14;;;;;;;2.43;1.60;;;12.00;99.90;11.80;100180.00;;;;5054206;28;20572;-68
2022/04/23 00:41:51;;;;;;;4.00;2.67;;;12.20;99.90;12.20;100144.00;;;;5053220;28;20240;-68
2022/04/23 00:44:20;;;;;;;3.70;3.40;;;12.20;99.90;11.70;100168.00;;;;5053250;28;20175;-68
2022/04/23 00:46:54;;;;;;;1.63;1.13;;;12.10;99.90;12.30;100179.00;;;;5052919;28;20279;-68
2022/04/23 00:49:23;;;;;;;7.33;3.53;;;12.20;99.90;11.70;100182.00;;;;5054644;28;20649;-68
2022/04/23 00:51:50;;;;;;;1.87;1.77;;;12.20;99.90;12.00;100179.00;;;;5053032;28;20193;-68
2022/04/23 00:54:22;;;;;;;3.37;1.57;;;12.20;99.90;11.90;100173.00;;;;5050682;28;20162;-68
2022/04/23 00:56:48;;;;;;;2.37;2.23;;;12.10;99.90;12.00;100171.00;;;;5051706;28;20179;-68
2022/04/23 00:59:17;;;;;;;3.20;2.97;;;12.20;99.90;12.00;100176.00;;;;5052078;28;20187;-68
2022/04/23 01:01:43;;;;;;;1.83;1.73;;;12.30;99.90;12.20;100162.00;;;;5052129;28;20190;-68
2022/04/23 01:04:12;;;;;;;3.90;3.03;;;12.40;99.90;12.20;100167.00;;;;5052739;28;20181;-68
2022/04/23 01:06:43;;;;;;;2.83;2.43;;;12.40;99.90;11.90;100166.00;;;;5053115;28;20203;-68
2022/04/23 01:09:12;;;;;;;2.70;2.50;;;12.20;99.90;12.10;100168.00;;;;5069693;28;20226;-68
2022/04/23 01:11:48;;;;;;;3.57;3.30;;;12.30;99.90;12.30;100170.00;;;;5054375;28;20237;-68
2022/04/23 01:14:16;;;;;;;1.73;1.70;;;12.40;99.90;12.00;100157.00;;;;5052898;28;20174;-68
2022/04/23 01:16:42;;;;;;;4.67;4.27;;;12.30;99.90;11.80;100161.00;;;;5053800;28;20300;-68
2022/04/23 01:19:08;;;;;;;1.60;1.43;;;12.20;99.90;11.90;100125.00;;;;5052597;28;20987;-68
2022/04/23 01:21:36;;;;;;;1.00;1.00;;;12.20;99.90;11.80;100155.00;;;;5054485;28;20183;-68
2022/04/23 01:24:09;;;;;;;3.33;3.03;;;12.20;99.90;12.10;100157.00;;;;5053470;28;20283;-68
2022/04/23 01:26:38;;;;;;;1.90;1.80;;;12.30;99.90;12.10;100171.00;;;;5052773;28;20232;-67
2022/04/23 01:29:07;;;;;;;0.40;0.40;;;12.30;99.90;12.50;100132.00;;;;5051160;28;20186;-67
2022/04/23 01:31:35;;;;;;;0.57;0.57;;;12.50;99.90;12.00;100158.00;;;;5035745;28;20222;-68
2022/04/23 01:34:04;;;;;;;1.40;1.30;;;12.40;99.90;12.20;100148.00;;;;5053118;28;20221;-68
2022/04/23 01:36:30;;;;;;;3.10;2.60;;;12.40;99.90;12.20;100163.00;;;;5052728;28;20169;-68
2022/04/23 01:39:00;;;;;;;1.50;1.40;;;12.40;99.90;12.50;100154.00;;;;5053968;28;20525;-67
2022/04/23 01:41:29;;;;;;;3.23;2.40;;;12.50;99.90;12.20;100152.00;;;;5052400;28;20186;-68
2022/04/23 01:43:54;;;;;;;0.40;0.40;;;12.50;99.90;12.00;100152.00;;;;5053153;28;20186;-67
2022/04/23 01:46:20;;;;;;;4.33;3.77;;;12.40;99.90;11.60;100153.00;;;;5051184;28;20261;-68
2022/04/23 01:48:48;;;;;;;3.90;3.40;;;12.20;99.90;11.60;100104.00;;;;5054008;28;20248;-67
2022/04/23 01:51:14;;;;;;;5.50;3.73;;;12.20;99.90;11.80;100149.00;;;;5052867;28;20202;-67
2022/04/23 01:53:40;;;;;;;5.10;3.03;;;12.20;99.90;12.10;100155.00;;;;5053451;28;20178;-67
2022/04/23 01:56:06;;;;;;;4.77;4.37;;;12.30;99.90;11.80;100151.00;;;;5052353;28;20243;-67
2022/04/23 01:58:32;;;;;;;3.03;2.63;;;12.30;99.90;11.90;100117.00;;;;5052162;28;20260;-67
2022/04/23 02:01:03;;;;;;;1.23;1.23;;;12.20;99.90;11.80;100113.00;;;;5052227;28;20183;-67
2022/04/23 02:03:35;;;;;;;4.90;3.90;;;12.30;99.90;12.10;100146.00;;;;5053431;28;20168;-67
2022/04/23 02:06:01;;;;;;;1.80;1.70;;;12.30;99.90;12.00;100150.00;;;;5034617;28;20533;-67
2022/04/23 02:08:30;;;;;;;1.13;1.13;;;12.30;99.90;11.80;100101.00;;;;5053321;28;20174;-66
2022/04/23 02:10:56;;;;;;;2.40;1.37;;;12.20;99.90;11.80;100146.00;;;;5035625;28;20642;-69
2022/04/23 02:13:22;;;;;;;1.20;1.17;;;12.20;99.90;12.00;100097.00;;;;5051198;28;20189;-67
2022/04/23 02:15:48;;;;;;;4.73;4.30;;;12.20;99.90;11.90;100138.00;;;;5053732;28;20178;-67
2022/04/23 02:18:16;;;;;;;2.77;2.57;;;12.20;99.90;12.00;100140.00;;;;5053076;28;20202;-67
2022/04/23 02:20:42;;;;;;;1.47;1.37;;;12.20;99.90;11.90;100135.00;;;;5051306;28;20181;-67
2022/04/23 02:23:10;;;;;;;2.30;2.10;;;12.30;99.90;11.80;100146.00;;;;5051422;28;20191;-67
2022/04/23 02:25:36;;;;;;;5.07;4.67;;;12.20;99.90;11.70;100142.00;;;;5053130;28;20190;-67
2022/04/23 02:28:06;;;;;;;2.30;2.20;;;12.10;99.90;11.80;100126.00;;;;5052261;28;20183;-68
2022/04/23 02:30:35;;;;;;;1.67;1.57;;;12.10;99.90;12.10;100141.00;;;;5052992;28;20211;-68
2022/04/23 02:33:01;;;;;;;1.93;1.83;;;12.20;99.90;12.00;100145.00;;;;5050949;28;20211;-67
2022/04/23 02:35:27;;;;;;;2.10;1.80;;;12.20;99.90;12.20;100148.00;;;;5051368;28;20182;-67
2022/04/23 02:37:56;;;;;;;6.57;3.93;;;12.30;99.90;12.10;100148.00;;;;5052582;28;20225;-67
2022/04/23 02:40:25;;;;;;;2.53;1.63;;;12.30;99.90;12.00;100152.00;;;;5051336;28;20178;-68
2022/04/23 02:42:53;;;;;;;0.80;0.80;;;12.30;99.90;12.30;100111.00;;;;5052391;28;20650;-68
2022/04/23 02:45:23;;;;;;;3.23;2.03;;;12.30;99.90;12.20;100152.00;;;;5052332;28;20181;-67
2022/04/23 02:47:54;;;;;;;1.13;1.03;;;12.30;99.90;12.00;100117.00;;;;5051850;28;20515;-67
2022/04/23 02:50:29;;;;;;;2.23;2.03;;;12.30;99.90;12.10;100147.00;;;;5051791;28;20208;-68
2022/04/23 02:52:58;;;;;;;6.40;4.93;;;12.20;99.90;12.10;100144.00;;;;5035276;28;20297;-68
2022/04/23 02:55:26;;;;;;;5.20;4.70;;;12.20;99.90;12.20;100153.00;;;;5050755;28;20626;-68
2022/04/23 02:57:53;;;;;;;6.50;5.83;;;12.30;99.90;11.60;100140.00;;;;5068421;28;20282;-68
2022/04/23 03:00:20;;;;;;;3.00;2.70;;;12.10;99.90;12.20;100114.00;;;;5052412;28;20178;-68
2022/04/23 03:02:47;;;;;;;4.53;3.90;;;12.20;99.90;11.70;100132.00;;;;5051652;28;20183;-67
2022/04/23 03:05:14;;;;;;;3.47;3.13;;;12.20;99.90;11.90;100125.00;;;;5068236;28;20169;-68
2022/04/23 03:07:41;;;;;;;2.63;2.40;;;12.10;99.90;11.40;100096.00;;;;5052962;28;20181;-68
2022/04/23 03:10:12;;;;;;;3.57;3.23;;;12.00;99.90;11.60;100120.00;;;;5050917;28;20256;-68
2022/04/23 03:12:43;;;;;;;9.60;5.63;;;12.00;99.90;11.60;100118.00;;;;5051418;28;20300;-67
2022/04/23 03:15:16;;;;;;;3.53;2.00;;;12.00;99.90;11.40;100120.00;;;;5051488;28;20205;-67
2022/04/23 03:17:44;;;;;;;6.03;4.53;;;12.00;99.90;11.30;100120.00;;;;5050629;28;20222;-67
2022/04/23 03:20:14;;;;;;;1.33;1.23;;;11.90;99.90;11.80;100129.00;;;;5071835;28;20265;-68
2022/04/23 03:22:41;;;;;;;4.10;3.77;;;12.00;99.90;11.30;100066.00;;;;5056428;28;20182;-68
2022/04/23 03:25:10;;;;;;;6.03;4.83;;;11.90;99.90;11.80;100127.00;;;;5054514;28;20287;-67
2022/04/23 03:27:38;;;;;;;0.70;0.70;;;12.00;99.90;11.90;100120.00;;;;5055038;28;20182;-67
2022/04/23 03:30:06;;;;;;;8.17;6.33;;;12.10;99.90;11.70;100122.00;;;;5055664;28;20216;-67
2022/04/23 03:32:37;;;;;;;6.87;6.23;;;12.10;99.90;11.60;100114.00;;;;5053306;28;20213;-66
2022/04/23 03:35:07;;;;;;;3.13;2.93;;;12.00;99.90;11.90;100125.00;;;;5054696;28;20187;-66
2022/04/23 03:37:33;;;;;;;3.07;2.63;;;12.10;99.90;11.90;100113.00;;;;5055044;28;20182;-66
2022/04/23 03:40:05;;;;;;;4.90;4.50;;;12.10;99.90;11.70;100120.00;;;;5056148;28;20179;-66
2022/04/23 03:42:31;;;;;;;3.20;2.20;;;12.00;99.90;11.80;100103.00;;;;5054363;28;20189;-67
2022/04/23 03:45:02;;;;;;;5.30;4.73;;;12.00;99.90;11.50;100108.00;;;;5054447;28;20189;-67
2022/04/23 03:47:28;;;;;;;4.63;4.23;;;12.00;99.90;11.80;100109.00;;;;5053860;28;20543;-67
2022/04/23 03:50:05;;;;;;;13.60;5.13;;;12.00;99.90;11.60;100113.00;;;;5054629;28;20197;-67
2022/04/23 03:52:34;;;;;;;4.63;3.67;;;11.90;99.90;11.70;100107.00;;;;5053113;28;20209;-67
2022/04/23 03:55:00;;;;;;;6.33;5.77;;;11.90;99.90;11.40;100109.00;;;;5054628;28;20668;-67
2022/04/23 03:57:29;;;;;;;6.27;4.97;;;11.90;99.90;11.50;100112.00;;;;5070581;28;20272;-66
2022/04/23 03:59:57;;;;;;;2.20;2.10;;;11.90;99.90;11.40;100100.00;;;;5055855;28;20180;-67
2022/04/23 04:02:23;;;;;;;6.00;5.50;;;12.00;99.90;11.50;100107.00;;;;5052918;28;20214;-67
2022/04/23 04:04:49;;;;;;;1.70;1.60;;;11.90;99.90;11.70;100099.00;;;;5055618;28;20171;-67
2022/04/23 04:07:19;;;;;;;7.37;5.77;;;11.90;99.90;11.30;100099.00;;;;5053929;28;20750;-67
2022/04/23 04:09:45;;;;;;;7.10;5.67;;;11.80;99.90;11.20;100104.00;;;;5053373;28;20232;-67
2022/04/23 04:12:14;;;;;;;3.43;3.13;;;11.80;99.90;11.60;100056.00;;;;5054125;28;20222;-67
2022/04/23 04:14:42;;;;;;;5.77;4.77;;;11.90;99.90;11.60;100079.00;;;;5055304;28;20650;-67
2022/04/23 04:17:10;;;;;;;1.43;1.33;;;11.90;99.90;11.50;100093.00;;;;5054094;28;20182;-67
2022/04/23 04:19:36;;;;;;;3.17;2.87;;;11.80;99.90;11.20;100084.00;;;;5070688;28;20176;-67
2022/04/23 04:22:04;;;;;;;7.77;5.53;;;11.70;99.90;11.50;100103.00;;;;5053452;28;20170;-67
2022/04/23 04:24:31;;;;;;;3.13;2.93;;;11.70;99.90;11.30;100090.00;;;;5053433;28;20178;-66
2022/04/23 04:26:58;;;;;;;29.17;4.90;;;11.80;99.90;11.30;100085.00;;;;5054314;28;20630;-67
2022/04/23 04:29:28;;;;;;;2.43;2.33;;;11.70;99.90;11.40;100084.00;;;;5036888;28;20189;-67
2022/04/23 04:31:56;;;;;;;1.20;1.20;;;11.70;99.90;11.40;100094.00;;;;5052695;28;20214;-67
2022/04/23 04:34:31;;;;;;;3.83;3.30;;;11.70;99.90;11.60;100093.00;;;;5054536;28;20174;-67
2022/04/23 04:37:10;;;;;;;5.13;1.47;;;11.80;99.90;11.60;100090.00;;;;5036357;28;20197;-67
2022/04/23 04:39:40;;;;;;;7.17;4.03;;;11.90;99.90;11.70;100088.00;;;;5033216;28;20174;-67
2022/04/23 04:42:07;;;;;;;7.03;5.50;;;11.90;99.90;11.60;100088.00;;;;5034063;28;20216;-67
2022/04/23 04:44:33;;;;;;;1.07;1.07;;;11.90;99.90;11.80;100098.00;;;;5034154;28;20191;-67
2022/04/23 04:47:02;;;;;;;4.37;3.67;;;11.90;99.90;11.80;100049.00;;;;5031860;28;20235;-67
2022/04/23 04:49:28;;;;;;;3.90;3.53;;;11.90;99.90;11.50;100090.00;;;;5032195;28;20187;-67
2022/04/23 04:51:54;;;;;;;3.63;3.33;;;11.80;99.90;11.40;100091.00;;;;5033019;28;20203;-67
2022/04/23 04:54:21;;;;;;;8.93;6.77;;;11.70;99.90;11.30;100092.00;;;;5034459;28;20262;-67
2022/04/23 04:56:51;;;;;;;4.47;4.07;;;11.70;99.90;11.40;100086.00;;;;5033161;28;20181;-67
2022/04/23 04:59:17;;;;;;;5.27;4.87;;;11.70;99.90;11.40;100104.00;;;;5033338;28;20175;-67
2022/04/23 05:01:46;;;;;;;6.07;5.50;;;11.70;99.90;11.30;100063.00;;;;5033082;28;20186;-67
2022/04/23 05:04:17;;;;;;;3.63;2.57;;;11.70;99.90;11.10;100099.00;;;;5031918;28;20526;-67
2022/04/23 05:06:43;;;;;;;3.83;3.53;;;11.70;99.90;11.40;100111.00;;;;5034306;28;20182;-67
2022/04/23 05:09:14;;;;;;;3.87;3.50;;;11.80;99.90;11.50;100111.00;;;;5034897;28;20536;-66
2022/04/23 05:11:40;;;;;;;5.67;4.20;;;11.80;99.90;11.50;100100.00;;;;5033243;28;20211;-66
2022/04/23 05:14:06;;;;;;;3.87;3.57;;;11.90;99.90;11.70;100102.00;;;;5033702;28;20171;-66
2022/04/23 05:16:31;;;;;;;5.80;4.77;;;12.00;99.90;11.80;100112.00;;;;5033585;28;20180;-66
2022/04/23 05:18:57;;;;;;;8.20;6.07;;;12.10;99.90;11.70;100103.00;;;;5033090;28;20545;-67
2022/04/23 05:21:23;;;;;;;4.90;4.27;;;12.10;99.90;11.90;100098.00;;;;5033272;28;20210;-67
2022/04/23 05:23:49;;;;;;;4.57;3.90;;;12.20;99.90;11.90;100108.00;;;;5032857;28;20186;-67
2022/04/23 05:26:15;;;;;;;6.60;5.97;;;12.20;99.90;11.60;100101.00;;;;5034322;28;20185;-66
2022/04/23 05:28:41;;;;;;;7.03;6.33;;;12.10;99.90;11.80;100054.00;;;;5032834;28;20200;-67
2022/04/23 05:31:08;;;;;;;4.33;4.00;;;12.10;99.90;11.90;100080.00;;;;5032620;28;20190;-66
2022/04/23 05:33:35;;;;;;;12.97;9.93;;;12.10;99.90;11.80;100112.00;;;;5032277;28;20262;-67
2022/04/23 05:36:06;;;;;;;5.17;4.67;;;12.10;99.90;11.90;100105.00;;;;5033781;28;20171;-66
2022/04/23 05:38:37;;;;;;;10.40;9.33;;;12.10;99.90;11.90;100110.00;;;;5032935;28;20193;-66
2022/04/23 05:41:04;;;;;;;11.30;6.23;;;12.10;99.90;11.90;100101.00;;;;5033411;28;20626;-66
2022/04/23 05:43:30;;;;;;;5.40;4.87;;;12.10;99.90;11.80;100109.00;;;;5032294;28;20191;-67
2022/04/23 05:45:57;;;;;;;6.00;3.87;;;12.20;99.90;11.90;100103.00;;;;5031699;28;20190;-66
2022/04/23 05:48:27;;;;;;;4.50;4.10;;;12.20;99.90;11.80;100113.00;;;;5033831;28;20587;-68
2022/04/23 05:50:58;;;;;;;8.17;5.83;;;12.20;99.90;12.10;100091.00;;;;5033001;28;20193;-68
2022/04/23 05:53:24;;;;;;;2.20;2.07;;;12.30;99.90;12.10;100116.00;;;;5033009;28;20265;-68
2022/04/23 05:55:56;;;;;;;8.87;7.43;;;12.30;99.90;11.80;100101.00;;;;5032428;28;20238;-67
2022/04/23 05:58:25;;;;;;;11.53;9.13;;;12.30;99.90;11.50;100105.00;;;;5033109;28;20635;-67
2022/04/23 06:00:52;;;;;;;8.63;6.07;;;12.10;99.90;12.00;100113.00;;;;5033801;28;20528;-68
2022/04/23 06:03:18;;;;;;;8.97;6.10;;;12.20;99.90;11.70;100065.00;;;;5031267;28;20182;-68
2022/04/23 06:05:44;;;;;;;9.77;8.13;;;12.20;99.90;12.10;100104.00;;;;5032197;28;20186;-68
2022/04/23 06:08:18;;;;;;;3.50;3.20;;;12.50;99.90;13.30;100067.00;;;;5033569;28;20175;-67
2022/04/23 06:10:44;;;;;;;12.13;7.77;;;13.10;99.90;13.10;100104.00;;;;5031638;28;20187;-67
2022/04/23 06:13:10;;;;;;;2.73;2.50;;;13.40;99.90;13.90;100131.00;;;;5032010;28;20215;-67
2022/04/23 06:15:42;;;;;;;5.23;4.70;;;14.00;99.90;14.30;100125.00;;;;5032127;28;20244;-68
2022/04/23 06:18:13;;;;;;;13.17;8.07;;;14.50;99.90;13.90;100126.00;;;;5032610;28;20534;-69
2022/04/23 06:20:41;;;;;;;5.87;4.43;;;14.50;99.90;14.80;100134.00;;;;5032004;28;20253;-68
2022/04/23 06:23:07;;;;;;;5.67;5.10;;;14.80;99.90;14.30;100130.00;;;;5033472;28;20186;-69
2022/04/23 06:25:36;;;;;;;3.57;3.07;;;14.80;99.90;15.40;100144.00;;;;5033047;28;20189;-68
2022/04/23 06:28:11;;;;;;;7.83;5.13;;;15.20;99.90;14.70;100140.00;;;;5031141;28;20198;-69
2022/04/23 06:30:38;;;;;;;12.50;8.63;;;15.20;99.90;15.00;100144.00;;;;5031862;28;20182;-69
2022/04/23 06:33:04;;;;;;;4.73;3.93;;;15.10;99.90;14.60;100142.00;;;;5031809;28;20730;-68
2022/04/23 06:35:30;;;;;;;5.20;4.43;;;14.90;99.90;15.00;100154.00;;;;5031530;28;20658;-68
2022/04/23 06:37:57;;;;;;;5.63;4.87;;;15.10;99.90;14.60;100146.00;;;;5032995;28;20213;-67
2022/04/23 06:40:32;;;;;;;6.30;5.10;;;15.10;99.90;15.40;100155.00;;;;5033179;28;20247;-67
2022/04/23 06:42:58;;;;;;;6.30;3.07;;;15.40;99.90;15.60;100157.00;;;;5047733;28;20227;-67
2022/04/23 06:45:24;;;;;;;3.10;2.43;;;15.60;99.90;15.80;100147.00;;;;5033191;28;20629;-67
2022/04/23 06:48:07;;;;;;;4.57;4.17;;;15.60;99.90;15.60;100168.00;;;;5032784;28;20227;-68
2022/04/23 06:50:34;;;;;;;1.53;1.43;;;15.60;99.90;15.60;100156.00;;;;5032194;28;20393;-67
2022/04/23 06:53:01;;;;;;;2.83;2.47;;;15.90;99.90;15.40;100150.00;;;;5032325;28;20668;-67
2022/04/23 06:55:28;;;;;;;4.07;3.33;;;15.80;99.90;16.40;100173.00;;;;5035339;28;20259;-68
2022/04/23 06:57:54;;;;;;;7.87;5.70;;;16.00;99.90;15.90;100178.00;;;;5036652;28;20178;-68
2022/04/23 07:00:23;;;;;;;9.83;6.90;;;16.00;99.90;15.20;100129.00;;;;5030528;28;20185;-69
2022/04/23 07:02:52;;;;;;;2.63;2.43;;;15.60;99.90;15.90;100171.00;;;;5011810;28;20184;-70
2022/04/23 07:05:18;;;;;;;6.60;4.33;;;15.80;99.90;15.00;100173.00;;;;5029185;28;20172;-69
2022/04/23 07:07:57;;;;;;;11.97;8.97;;;15.70;99.90;15.20;100161.00;;;;5028743;28;20208;-69
2022/04/23 07:10:25;;;;;;;8.30;5.70;;;15.60;99.90;14.20;100131.00;;;;5011961;28;20684;-68
2022/04/23 07:12:52;;;;;;;8.67;5.83;;;14.90;99.90;15.00;100126.00;;;;5028471;28;20312;-68
2022/04/23 07:15:19;;;;;;;8.53;6.50;;;15.20;99.90;15.80;100157.00;;;;5028661;28;20189;-68
2022/04/23 07:17:47;;;;;;;7.03;5.40;;;15.60;99.90;15.40;100145.00;;;;5029109;28;20178;-70
2022/04/23 07:20:14;;;;;;;2.73;2.53;;;15.60;99.90;16.10;100162.00;;;;5028737;28;20198;-70
2022/04/23 07:22:40;;;;;;;5.23;4.23;;;16.00;99.90;15.90;100156.00;;;;5028261;28;20187;-69
2022/04/23 07:25:08;;;;;;;5.10;4.60;;;16.10;99.90;15.40;100161.00;;;;4996095;28;20183;-69
2022/04/23 07:27:37;;;;;;;3.00;2.70;;;16.00;99.90;16.20;100149.00;;;;5028148;28;20211;-70
2022/04/23 07:30:03;;;;;;;8.00;5.17;;;16.30;99.90;16.30;100147.00;;;;5027731;28;20587;-67
2022/04/23 07:32:29;;;;;;;10.17;7.40;;;16.20;99.90;16.40;100159.00;;;;5027654;28;20210;-69
2022/04/23 07:37:39;;;;;;;16.10;8.07;;;16.20;99.90;16.80;100166.00;;;;4996797;28;20326;-69
2022/04/23 07:40:10;;;;;;;14.97;8.63;;;16.50;99.90;15.40;100153.00;;;;4995991;28;20270;-68
2022/04/23 07:42:39;;;;;;;6.87;6.13;;;15.80;99.90;15.80;100118.00;;;;4996705;28;20187;-67
2022/04/23 07:45:10;;;;;;;10.13;7.30;;;16.10;99.90;15.80;100150.00;;;;4996378;28;20173;-68
2022/04/23 07:47:39;;;;;;;11.63;9.53;;;16.10;99.90;16.60;100162.00;;;;5027157;28;20183;-68
2022/04/23 07:50:05;;;;;;;8.43;4.87;;;16.30;99.90;16.00;100119.00;;;;5027622;28;20183;-68
2022/04/23 07:52:31;;;;;;;4.40;2.80;;;16.20;99.90;16.40;100165.00;;;;5010309;28;20761;-68
2022/04/23 07:54:57;;;;;;;5.63;4.40;;;16.40;99.90;17.40;100183.00;;;;5011122;28;20195;-70
2022/04/23 07:57:28;;;;;;;11.07;4.28;;;17.00;99.90;17.30;100179.00;;;;4996682;28;20188;-70
2022/04/23 07:59:59;;;;;;;7.03;5.10;;;17.20;99.90;16.60;100174.00;;;;5006609;28;20202;-69
2022/04/23 08:02:25;;;;;;;4.73;3.77;;;17.00;99.90;15.80;100114.00;;;;5006120;28;20319;-69
2022/04/23 08:04:51;;;;;;;4.40;4.00;;;16.20;99.90;17.30;100173.00;;;;4995829;28;20202;-70
2022/04/23 08:07:16;;;;;;;5.75;3.72;;;16.80;99.90;17.40;100177.00;;;;4995239;28;20222;-70
2022/04/23 08:09:42;;;;;;;2.85;2.03;;;17.40;99.90;18.20;100194.00;;;;4995021;28;20268;-70
2022/04/23 08:12:09;;;;;;;7.55;4.07;;;17.70;99.90;18.50;100203.00;;;;4995116;28;20233;-69
2022/04/23 08:14:42;;;;;;;2.00;1.83;;;18.00;99.90;18.90;100206.00;;;;4994982;28;20203;-69
2022/04/23 08:17:07;;;;;;;7.68;6.53;;;18.30;99.90;17.60;100200.00;;;;4996759;28;20219;-69
2022/04/23 08:19:33;;;;;;;6.25;5.43;;;17.90;99.90;18.00;100152.00;;;;5015689;28;20599;-69
2022/04/23 08:21:59;;;;;;;10.73;8.40;;;17.70;99.90;17.20;100176.00;;;;5047541;28;20195;-69
2022/04/23 08:24:25;;;;;;;9.18;8.18;;;17.60;99.90;17.00;100174.00;;;;5014767;28;20187;-69
2022/04/23 08:26:51;;;;;;;6.53;5.20;;;17.10;99.90;17.10;100180.00;;;;5015375;28;20256;-69
2022/04/23 08:32:04;;;;;;;6.40;4.30;;;17.20;99.90;17.60;100164.00;;;;5036664;28;20233;-69
2022/04/23 08:34:32;;;;;;;4.67;3.87;;;17.40;99.90;18.10;100175.00;;;;5009244;28;20627;-69
2022/04/23 08:36:58;;;;;;;8.90;7.78;;;17.70;99.90;18.30;100169.00;;;;5014995;28;20182;-69
2022/04/23 08:39:23;;;;;;;6.80;5.33;;;18.10;99.90;18.10;100175.00;;;;5030598;28;20229;-70
2022/04/23 08:41:52;;;;;;;2.00;1.90;;;18.10;99.90;18.00;100185.00;;;;5011899;28;20194;-70
2022/04/23 08:44:21;;;;;;;8.47;4.57;;;17.90;99.90;17.00;100177.00;;;;5014214;28;20207;-68
2022/04/23 08:46:54;;;;;;;3.53;2.80;;;17.50;99.90;18.50;100182.00;;;;5013196;28;20509;-70
2022/04/23 08:49:27;;;;;;;7.10;6.38;;;17.80;99.90;18.40;100193.00;;;;5028665;28;20237;-68
2022/04/23 08:52:09;;;;;;;8.40;5.82;;;18.30;99.90;18.00;100149.00;;;;5030164;28;20238;-69
2022/04/23 08:54:39;;;;;;;10.48;7.53;;;17.90;99.90;17.20;100168.00;;;;5029008;28;20214;-69
2022/04/23 08:57:05;;;;;;;12.80;8.63;;;17.50;99.90;17.30;100173.00;;;;5030031;28;20185;-69
2022/04/23 08:59:31;;;;;;;5.87;5.33;;;17.20;99.90;17.30;100165.00;;;;5029500;28;20185;-69
2022/04/23 09:02:01;;;;;;;3.03;2.47;;;17.30;99.90;17.70;100165.00;;;;5012448;28;20663;-70
2022/04/23 09:04:28;;;;;;;5.83;5.23;;;17.50;99.90;18.30;100182.00;;;;5029159;28;20180;-69
2022/04/23 09:06:54;;;;;;;9.57;7.53;;;18.00;99.90;18.40;100188.00;;;;5029366;28;20174;-69
2022/04/23 09:09:22;;;;;;;6.73;5.77;;;18.30;99.90;18.10;100153.00;;;;5012344;28;20560;-70
2022/04/23 09:11:57;;;;;;;11.03;6.07;;;18.20;99.90;17.90;100175.00;;;;5010352;28;20213;-70
2022/04/23 09:14:29;;;;;;;6.70;6.10;;;18.10;99.90;17.70;100172.00;;;;5011995;28;20250;-69
2022/04/23 09:25:46;;;;;;;3.70;3.10;;;17.70;99.90;18.00;100161.00;;;;5020095;28;20197;-69
2022/04/23 09:28:23;;;;;;;12.13;8.73;;;17.80;99.90;18.40;100178.00;;;;5002450;28;20197;-70
2022/04/23 09:31:15;;;;;;;5.00;3.67;;;18.20;99.90;18.00;100159.00;;;;5008662;28;20186;-69
2022/04/23 09:33:54;;;;;;;10.40;7.33;;;18.30;99.90;18.20;100134.00;;;;5012507;28;20183;-70
2022/04/23 09:36:20;;;;;;;8.75;6.13;;;18.10;99.90;18.90;100173.00;;;;5012459;28;20225;-69
2022/04/23 09:39:07;;;;;;;7.88;6.47;;;18.50;99.90;18.80;100180.00;;;;5014646;28;20586;-71
2022/04/23 09:41:34;;;;;;;4.25;3.85;;;18.70;99.90;18.60;100182.00;;;;5013693;28;20590;-72
2022/04/23 09:44:10;;;;;;;4.45;4.05;;;18.60;99.90;19.60;100191.00;;;;5011924;28;20640;-71
2022/04/23 09:47:03;;;;;;;4.55;3.15;;;19.00;99.90;18.50;100154.00;;;;4996151;28;20237;-65
2022/04/23 09:49:32;;;;;;;6.53;4.78;;;18.70;99.90;19.20;100184.00;;;;5009281;28;20193;-70
2022/04/23 09:52:09;;;;;;;8.80;6.65;;;18.90;99.90;19.20;100189.00;;;;5012897;28;20202;-71
2022/04/23 09:54:38;;;;;;;1.60;1.50;;;19.00;99.90;19.50;100191.00;;;;4996175;28;20186;-71
2022/04/23 09:57:09;;;;;;;7.55;6.15;;;19.10;99.90;19.30;100193.00;;;;5011919;28;20278;-71
2022/04/23 09:59:38;;;;;;;24.60;2.67;;;19.30;99.90;19.30;100172.00;;;;5013270;28;20190;-68
2022/04/23 10:02:05;;;;;;;9.95;7.28;;;19.30;99.90;19.30;100137.00;;;;5013795;28;20195;-68
2022/04/23 10:04:33;;;;;;;7.15;6.10;;;19.30;99.90;19.10;100174.00;;;;5010607;28;20286;-68
2022/04/23 10:07:01;;;;;;;7.38;6.13;;;19.10;99.90;19.20;100182.00;;;;4994085;28;20677;-68
2022/04/23 10:09:30;;;;;;;12.23;9.63;;;19.10;99.90;19.20;100189.00;;;;5029051;28;20241;-68
2022/04/23 10:12:08;;;;;;;7.15;5.55;;;19.10;99.90;19.30;100147.00;;;;5028477;28;20257;-69
2022/04/23 10:14:52;;;;;;;4.82;3.60;;;19.00;99.90;19.60;100188.00;;;;5019751;28;20656;-68
2022/04/23 10:17:20;;;;;;;5.68;5.00;;;19.20;99.90;19.30;100181.00;;;;5028100;28;20180;-68
2022/04/23 10:19:48;;;;;;;6.55;5.32;;;19.10;99.90;20.10;100181.00;;;;5044444;28;20529;-69
2022/04/23 10:33:28;;;;;;;9.32;6.45;;;18.60;99.90;18.40;100147.00;;;;5126214;27;20536;-69
2022/04/23 10:36:08;;;;;;;4.07;3.67;;;18.70;99.90;18.80;100137.00;;;;5099029;28;20207;-70
2022/04/23 10:38:38;;;;;;;7.80;5.43;;;18.70;99.90;19.70;100158.00;;;;5079904;28;20182;-69
2022/04/23 10:41:10;;;;;;;4.18;3.45;;;19.50;99.90;19.80;100167.00;;;;5088567;28;20204;-69
2022/04/23 10:43:58;;;;;;;10.73;8.50;;;19.70;99.90;18.50;100147.00;;;;5072610;28;20177;-69
2022/04/23 10:46:41;;;;;;;14.18;7.40;;;19.40;99.90;19.60;100167.00;;;;5089371;28;20184;-69
2022/04/23 10:49:24;;;;;;;7.78;5.53;;;19.40;99.90;19.70;100155.00;;;;5089559;28;20176;-70
2022/04/23 10:51:56;;;;;;;1.48;1.38;;;19.50;99.90;19.80;100172.00;;;;5087816;28;20212;-70
2022/04/23 10:54:41;;;;;;;4.25;2.47;;;19.60;99.90;20.50;100166.00;;;;5089168;28;20173;-70
2022/04/23 10:57:13;;;;;;;2.58;2.38;;;20.10;99.90;20.00;100176.00;;;;5090169;28;20639;-70
2022/04/23 10:59:50;;;;;;;3.08;2.80;;;20.00;99.90;20.70;100175.00;;;;5090290;28;20169;-70
2022/04/23 11:02:22;;;;;;;5.47;4.53;;;20.30;99.90;20.50;100170.00;;;;5089751;28;20188;-70
2022/04/23 11:14:05;;;;;;;3.65;3.17;;;20.40;99.90;20.70;100181.00;;;;5090502;28;20230;-69
2022/04/23 11:17:12;;;;;;;6.10;3.00;;;20.70;99.90;20.10;100124.00;;;;5090290;28;20157;-68
2022/04/23 11:19:42;;;;;;;6.00;4.10;;;20.20;99.90;20.20;100165.00;;;;5073232;28;20235;-69
2022/04/23 11:22:10;;;;;;;7.43;5.85;;;20.10;99.90;20.50;100174.00;;;;5089521;28;20196;-68
2022/04/23 11:24:37;;;;;;;6.13;4.38;;;20.20;99.90;20.90;100167.00;;;;5090207;28;20199;-68
2022/04/23 11:27:03;;;;;;;3.80;3.50;;;20.40;99.90;20.50;100131.00;;;;5089806;28;20185;-69
2022/04/23 11:29:29;;;;;;;5.70;3.47;;;20.60;99.90;20.50;100162.00;;;;5088455;28;20183;-69
2022/04/23 11:32:00;;;;;;;5.20;4.32;;;20.50;99.90;20.80;100132.00;;;;5087305;28;20295;-68